Погода Зубрына неделю

Могилёвская область, Белоруссия

24 - 30 мая
  • 24мая
    Сегодня
    +9°
    +21°
    Ясно и безоблачно
    ВремяПогодаТемператураВлажностьДавлениеВетер, м/сВероятность осадков
    00:00Ясно и безоблачно+14°C56 %753 мм3.7 м/с2 %
    03:00Ясно и безоблачно+12°C57 %754 мм2.9 м/с2 %
    06:00Ясно и безоблачно+10°C60 %755 мм3.7 м/с2 %
    09:00Ясно и безоблачно+15°C50 %756 мм3.9 м/с2 %
    12:00Ясно и безоблачно+19°C39 %756 мм5.1 м/с2 %
    15:00Ясно и безоблачно+20°C36 %755 мм4.9 м/с2 %
    18:00Ясно и безоблачно+21°C39 %755 мм4.1 м/с2 %
    21:00Ясно и безоблачно+16°C52 %755 мм2.8 м/с2 %
  • 25мая
    Суббота
    +10°
    +24°
    Ясно и безоблачно
    ВремяПогодаТемператураВлажностьДавлениеВетер, м/сВероятность осадков
    00:00Ясно и безоблачно+12°C55 %755 мм3.0 м/с2 %
    03:00Ясно и безоблачно+10°C63 %755 мм2.4 м/с2 %
    06:00Ясно и безоблачно+10°C68 %755 мм3.0 м/с2 %
    09:00Ясно и безоблачно+16°C56 %755 мм2.5 м/с2 %
    12:00Ясно и безоблачно+21°C47 %754 мм3.6 м/с2 %
    15:00Ясно и безоблачно+23°C39 %754 мм3.5 м/с2 %
    18:00Ясно и безоблачно+23°C40 %753 мм2.8 м/с2 %
    21:00Ясно и безоблачно+18°C65 %752 мм1.5 м/с2 %
  • 26мая
    Воскресенье
    +13°
    +25°
    Небольшая облачность
    ВремяПогодаТемператураВлажностьДавлениеВетер, м/сВероятность осадков
    00:00Ясно и безоблачно+14°C79 %752 мм2.2 м/с2 %
    03:00Практически безоблачно+12°C80 %752 мм1.7 м/с2 %
    06:00Облачно с прояснениями+12°C80 %752 мм1.6 м/с2 %
    09:00Облачно с прояснениями+19°C54 %753 мм0.9 м/с2 %
    12:00Облачно с прояснениями+22°C38 %752 мм2.5 м/с2 %
    15:00Небольшая облачность+24°C33 %752 мм2.7 м/с2 %
    18:00Небольшая облачность+24°C39 %751 мм2.7 м/с2 %
    21:00Практически безоблачно+20°C62 %751 мм1.1 м/с2 %
  • 27мая
    Понедельник
    +12°
    +26°
    Небольшая облачность
    ВремяПогодаТемператураВлажностьДавлениеВетер, м/сВероятность осадков
    00:00Ясно и безоблачно+17°C64 %751 мм1.8 м/с2 %
    03:00Ясно и безоблачно+14°C77 %752 мм1.6 м/с2 %
    06:00Практически безоблачно+14°C82 %752 мм2.3 м/с2 %
    09:00Ясно и безоблачно+18°C71 %752 мм1.8 м/с4 %
    12:00Практически безоблачно+21°C54 %753 мм2.7 м/с6 %
    15:00Небольшая облачность+23°C52 %752 мм2.7 м/с16 %
    18:00Практически безоблачно+25°C52 %752 мм2.3 м/с31 %
    21:00Практически безоблачно+19°C71 %752 мм2.0 м/с4 %
  • 28мая
    Вторник
    +13°
    +25°
    Ясно и безоблачно
    ВремяПогодаТемператураВлажностьДавлениеВетер, м/сВероятность осадков
    00:00Ясно и безоблачно+16°C70 %752 мм2.7 м/с2 %
    03:00Ясно и безоблачно+13°C60 %753 мм2.3 м/с2 %
    06:00Ясно и безоблачно+12°C66 %753 мм2.9 м/с2 %
    09:00Ясно и безоблачно+17°C55 %753 мм2.5 м/с2 %
    12:00Ясно и безоблачно+21°C40 %753 мм4.0 м/с4 %
    15:00Ясно и безоблачно+23°C38 %752 мм3.8 м/с7 %
    18:00Ясно и безоблачно+23°C38 %751 мм2.3 м/с10 %
    21:00Ясно и безоблачно+19°C56 %751 мм1.3 м/с5 %
Мы используем cookies
Соглашаюсь